createdAt,value
2019-04-26T00:00:48.966Z,16.70
2019-04-26T00:03:35.447Z,15.31
2019-04-26T00:06:03.836Z,16.56
2019-04-26T00:08:31.843Z,16.50
2019-04-26T00:11:00.474Z,16.42
2019-04-26T00:13:45.536Z,16.37
2019-04-26T00:16:17.178Z,16.30
2019-04-26T00:18:44.941Z,16.16
2019-04-26T00:21:12.586Z,16.05
2019-04-26T00:23:40.553Z,16.02
2019-04-26T00:26:07.568Z,15.99
2019-04-26T00:28:34.321Z,15.98
2019-04-26T00:31:01.363Z,15.97
2019-04-26T00:33:29.161Z,14.54
2019-04-26T00:35:56.540Z,15.99
2019-04-26T00:38:24.260Z,15.93
2019-04-26T00:40:51.827Z,15.89
2019-04-26T00:43:18.673Z,15.88
2019-04-26T00:45:46.385Z,15.83
2019-04-26T00:48:15.124Z,14.46
2019-04-26T00:50:43.403Z,15.78
2019-04-26T00:53:11.671Z,15.75
2019-04-26T00:55:39.400Z,15.72
2019-04-26T00:58:06.730Z,15.69
2019-04-26T01:00:33.960Z,15.67
2019-04-26T01:03:01.082Z,15.63
2019-04-26T01:05:29.711Z,15.59
2019-04-26T01:07:57.647Z,15.56
2019-04-26T01:10:25.835Z,15.54
2019-04-26T01:12:53.624Z,15.52
2019-04-26T01:15:22.073Z,15.47
2019-04-26T01:17:50.039Z,15.41
2019-04-26T01:20:18.873Z,15.38
2019-04-26T01:25:43.490Z,15.24
2019-04-26T01:28:14.087Z,15.21
2019-04-26T01:30:42.058Z,15.15
2019-04-26T01:33:08.675Z,15.09
2019-04-26T01:35:35.696Z,15.06
2019-04-26T01:38:04.841Z,15.01
2019-04-26T07:56:23.476Z,16.68
2019-04-26T07:59:19.096Z,16.81
2019-04-26T08:01:54.314Z,17.00
2019-04-26T08:04:31.474Z,16.99
2019-04-26T08:07:17.163Z,17.01
2019-04-26T08:09:59.548Z,17.16
2019-04-26T08:12:18.238Z,17.33
2019-04-26T08:15:02.125Z,17.45
2019-04-26T08:17:33.427Z,17.39
2019-04-26T08:20:31.957Z,17.23
2019-04-26T08:23:09.027Z,17.23
2019-04-26T08:25:34.346Z,15.28
2019-04-26T08:28:02.988Z,17.63
2019-04-26T08:30:30.977Z,17.65
2019-04-26T08:33:02.187Z,17.58
2019-04-26T08:35:31.428Z,17.67
2019-04-26T08:38:01.194Z,17.88
2019-04-26T08:40:32.307Z,17.94
2019-04-26T08:43:16.416Z,16.90
2019-04-26T08:46:02.880Z,18.07
2019-04-26T08:48:27.805Z,17.93
2019-04-26T08:50:54.759Z,16.78
2019-04-26T08:53:22.480Z,18.16
2019-04-26T08:55:50.244Z,18.29
2019-04-26T08:58:18.715Z,18.60
2019-04-26T09:01:05.652Z,18.80
2019-04-26T09:03:42.138Z,18.90
2019-04-26T09:06:20.918Z,18.94
2019-04-26T09:08:48.989Z,18.79
2019-04-26T09:11:25.788Z,18.50
2019-04-26T09:13:49.889Z,18.21
2019-04-26T09:16:17.703Z,18.04
2019-04-26T09:18:52.518Z,17.84
2019-04-26T09:21:17.617Z,17.93
2019-04-26T09:23:44.390Z,17.97
2019-04-26T09:26:23.825Z,18.06
2019-04-26T09:29:07.521Z,18.19
2019-04-26T09:31:50.394Z,18.20
2019-04-26T09:34:18.786Z,18.17
2019-04-26T09:36:45.833Z,18.24
2019-04-26T09:39:13.459Z,18.43
2019-04-26T09:41:40.751Z,18.56
2019-04-26T09:44:15.430Z,18.42
2019-04-26T09:47:01.003Z,18.24
2019-04-26T09:49:29.907Z,18.25
2019-04-26T09:51:56.972Z,18.06
2019-04-26T09:54:23.997Z,17.86
2019-04-26T09:56:50.745Z,17.69
2019-04-26T09:59:17.516Z,17.68
2019-04-26T10:01:45.161Z,17.90
2019-04-26T10:04:11.997Z,16.94
2019-04-26T10:06:38.756Z,18.27
2019-04-26T10:09:10.778Z,18.38
2019-04-26T10:11:43.642Z,18.37
2019-04-26T10:14:10.276Z,18.42
2019-04-26T10:16:51.528Z,18.38
2019-04-26T10:19:19.874Z,18.36
2019-04-26T10:21:46.649Z,18.46
2019-04-26T10:24:13.821Z,18.61
2019-04-26T10:26:40.666Z,18.80
2019-04-26T10:29:07.482Z,18.91
2019-04-26T10:31:34.531Z,18.85
2019-04-26T10:34:01.339Z,18.67
2019-04-26T10:36:30.224Z,18.43
2019-04-26T10:38:58.349Z,18.41
2019-04-26T10:41:25.557Z,18.35
2019-04-26T10:43:52.505Z,18.23
2019-04-26T10:46:19.724Z,18.05
2019-04-26T10:48:49.926Z,16.62
2019-04-26T10:51:17.081Z,17.65
2019-04-26T10:53:50.390Z,16.25
2019-04-26T10:56:35.589Z,17.30
2019-04-26T10:59:10.885Z,17.22
2019-04-26T11:01:38.351Z,17.24
2019-04-26T11:04:05.186Z,17.21
2019-04-26T11:06:32.391Z,17.20
2019-04-26T11:08:59.209Z,17.15
2019-04-26T11:11:26.499Z,17.16
2019-04-26T11:13:53.349Z,17.11
2019-04-26T11:16:20.838Z,17.08
2019-04-26T11:18:47.631Z,16.96
2019-04-26T11:21:16.321Z,16.77
2019-04-26T11:23:45.394Z,16.90
2019-04-26T11:26:13.244Z,17.10
2019-04-26T11:28:42.025Z,16.87
2019-04-26T11:31:09.660Z,15.89
2019-04-26T11:33:44.734Z,17.39
2019-04-26T11:36:07.413Z,17.53
2019-04-26T11:38:35.096Z,17.67
2019-04-26T11:41:06.275Z,16.51
2019-04-26T11:43:31.133Z,17.63
2019-04-26T11:46:04.197Z,17.59
2019-04-26T11:48:29.335Z,17.48
2019-04-26T11:50:55.755Z,17.42
2019-04-26T11:53:22.735Z,17.32
2019-04-26T11:55:49.647Z,16.19
2019-04-26T11:58:17.857Z,17.68
2019-04-26T12:00:46.753Z,17.74
2019-04-26T12:03:13.820Z,17.62
2019-04-26T12:05:45.182Z,17.49
2019-04-26T12:08:17.143Z,17.31
2019-04-26T12:10:44.469Z,16.05
2019-04-26T12:13:12.677Z,17.22
2019-04-26T12:15:43.798Z,15.97
2019-04-26T12:18:09.817Z,17.15
2019-04-26T12:20:37.472Z,17.14
2019-04-26T12:23:04.521Z,17.19
2019-04-26T12:25:31.383Z,17.19
2019-04-26T12:28:01.937Z,17.16
2019-04-26T12:30:27.235Z,17.12
2019-04-26T12:32:53.902Z,16.95
2019-04-26T12:35:20.640Z,16.92
2019-04-26T12:37:50.737Z,16.94
2019-04-26T12:40:19.402Z,16.93
2019-04-26T12:42:47.359Z,16.89
2019-04-26T12:45:32.824Z,16.91
2019-04-26T12:48:01.409Z,16.73
2019-04-26T12:50:29.533Z,16.58
2019-04-26T12:52:57.443Z,16.42
2019-04-26T12:55:24.732Z,16.39
2019-04-26T12:57:51.447Z,16.37
2019-04-26T13:00:20.903Z,16.31
2019-04-26T13:02:50.265Z,16.09
2019-04-26T13:05:18.888Z,15.92
2019-04-26T13:07:47.143Z,15.90
2019-04-26T13:10:24.649Z,15.85
2019-04-26T13:12:56.164Z,15.68
2019-04-26T13:16:00.817Z,15.60
2019-04-26T13:18:28.159Z,15.59
2019-04-26T13:20:58.547Z,15.62
2019-04-26T13:23:25.487Z,15.62
2019-04-26T13:25:55.444Z,15.65
2019-04-26T13:28:21.868Z,15.69
2019-04-26T13:30:48.904Z,15.71
2019-04-26T13:33:16.250Z,14.44
2019-04-26T13:35:46.674Z,15.80
2019-04-26T13:38:12.329Z,15.78
2019-04-26T13:40:40.294Z,15.79
2019-04-26T13:43:07.958Z,15.80
2019-04-26T13:45:53.618Z,15.84
2019-04-26T13:48:24.742Z,15.90
2019-04-26T13:51:02.461Z,16.00
2019-04-26T13:53:31.258Z,16.07
2019-04-26T13:56:01.897Z,16.07
2019-04-26T13:58:27.089Z,15.95
2019-04-26T14:00:54.296Z,15.81
2019-04-26T14:03:21.177Z,15.70
2019-04-26T14:05:47.996Z,15.54
2019-04-26T14:08:17.637Z,15.49
2019-04-26T14:10:45.606Z,15.37
2019-04-26T14:13:13.200Z,15.27
2019-04-26T14:15:44.012Z,15.20
2019-04-26T14:18:09.555Z,15.07
2019-04-26T14:20:36.296Z,14.89
2019-04-26T14:23:11.416Z,14.74
2019-04-26T14:25:41.284Z,14.64
2019-04-26T14:28:08.605Z,14.59
2019-04-26T14:30:37.371Z,14.59
2019-04-26T14:33:04.240Z,14.60
2019-04-26T14:35:31.058Z,14.59
2019-04-26T14:37:58.277Z,14.59
2019-04-26T14:40:25.370Z,14.52
2019-04-26T14:43:05.725Z,13.06
2019-04-26T14:45:23.833Z,14.45
2019-04-26T14:47:50.460Z,14.40
2019-04-26T14:50:17.641Z,14.43
2019-04-26T14:52:44.680Z,14.50
2019-04-26T14:55:12.151Z,14.47
2019-04-26T14:57:39.829Z,14.36
2019-04-26T15:00:07.314Z,14.36
2019-04-26T15:02:35.997Z,14.32
2019-04-26T15:05:22.265Z,14.28
2019-04-26T15:07:51.516Z,14.09
2019-04-26T15:10:19.663Z,12.49
2019-04-26T15:12:48.899Z,13.91
2019-04-26T15:15:15.740Z,13.85
2019-04-26T15:17:42.940Z,13.78
2019-04-26T15:20:09.994Z,13.78
2019-04-26T15:22:37.415Z,13.62
2019-04-26T15:25:07.681Z,13.54
2019-04-26T15:27:36.225Z,13.45
2019-04-26T15:30:06.325Z,13.33
2019-04-26T15:32:35.230Z,13.18
2019-04-26T15:35:01.988Z,13.17
2019-04-26T15:37:29.091Z,11.95
2019-04-26T15:39:58.413Z,13.03
2019-04-26T15:42:29.245Z,13.01
2019-04-26T15:45:01.791Z,13.00
2019-04-26T15:47:28.912Z,12.94
2019-04-26T15:49:57.817Z,12.90
2019-04-26T15:52:25.865Z,12.83
2019-04-26T15:54:59.756Z,11.54
2019-04-26T15:57:30.661Z,12.86
2019-04-26T15:59:54.338Z,12.78
2019-04-26T16:02:26.086Z,12.75
2019-04-26T16:04:54.423Z,12.68
2019-04-26T16:07:27.316Z,11.24
2019-04-26T16:09:53.870Z,12.64
2019-04-26T16:12:20.208Z,12.58
2019-04-26T16:14:47.699Z,12.49
2019-04-26T16:17:15.090Z,12.45
2019-04-26T16:19:41.906Z,12.38
2019-04-26T16:22:09.070Z,12.36
2019-04-26T16:24:36.414Z,12.31
2019-04-26T16:27:03.388Z,12.25
2019-04-26T16:29:37.985Z,10.63
2019-04-26T16:32:16.817Z,12.00
2019-04-26T16:34:47.724Z,11.91
2019-04-26T16:37:21.564Z,11.86
2019-04-26T16:39:48.578Z,11.84
2019-04-26T16:42:14.068Z,11.77
2019-04-26T16:44:44.922Z,11.70
2019-04-26T16:47:10.125Z,11.65
2019-04-26T16:49:41.782Z,11.61
2019-04-26T16:52:07.821Z,11.58
2019-04-26T16:54:35.159Z,11.54
2019-04-26T16:57:06.684Z,11.39
2019-04-26T16:59:32.844Z,11.28
2019-04-26T17:02:02.378Z,11.20
2019-04-26T17:04:32.427Z,11.09
2019-04-26T17:07:02.005Z,11.03
2019-04-26T17:09:29.685Z,10.93
2019-04-26T17:11:56.462Z,10.88
2019-04-26T17:14:24.603Z,10.87
2019-04-26T17:16:53.183Z,10.86
2019-04-26T17:19:22.631Z,10.84
2019-04-26T17:22:00.942Z,8.10
2019-04-26T17:24:33.905Z,10.82
2019-04-26T17:27:05.483Z,10.67
2019-04-26T17:29:33.462Z,10.72
2019-04-26T17:32:00.489Z,10.78
2019-04-26T17:34:30.140Z,10.83
2019-04-26T17:36:57.081Z,10.85
2019-04-26T17:39:23.971Z,10.85
2019-04-26T17:41:54.194Z,10.84
2019-04-26T17:44:26.443Z,10.86
2019-04-26T17:46:56.305Z,10.88
2019-04-26T17:49:21.487Z,10.86
2019-04-26T17:51:53.151Z,10.86
2019-04-26T17:54:40.757Z,10.84
2019-04-26T17:56:46.034Z,10.80
2019-04-26T17:59:30.296Z,10.77
2019-04-26T18:01:47.704Z,10.75
2019-04-26T18:04:11.324Z,10.76
2019-04-26T18:06:40.339Z,10.76
2019-04-26T18:09:07.709Z,10.76
2019-04-26T18:11:34.718Z,10.65
2019-04-26T18:14:02.183Z,10.59
2019-04-26T18:16:29.823Z,10.48
2019-04-26T18:18:58.626Z,10.40
2019-04-26T18:21:39.208Z,10.30
2019-04-26T18:24:06.365Z,10.25
2019-04-26T18:26:33.205Z,8.72
2019-04-26T18:29:00.213Z,10.21
2019-04-26T18:31:28.815Z,10.23
2019-04-26T18:34:00.607Z,10.19
2019-04-26T18:36:27.683Z,10.17
2019-04-26T18:38:54.095Z,10.17
2019-04-26T18:41:24.565Z,10.12
2019-04-26T18:43:55.588Z,8.15
2019-04-26T18:46:21.811Z,10.12
2019-04-26T18:48:48.544Z,10.11
2019-04-26T18:51:15.387Z,10.11
2019-04-26T18:53:44.508Z,10.08
2019-04-26T18:56:13.265Z,10.07
2019-04-26T18:58:40.241Z,10.07
2019-04-26T19:01:09.541Z,10.07
2019-04-26T19:03:36.492Z,10.05
2019-04-26T19:06:05.586Z,8.52
2019-04-26T19:08:45.022Z,10.02
2019-04-26T19:11:03.450Z,10.01
2019-04-26T19:13:36.585Z,10.01
2019-04-26T19:16:23.550Z,9.99
2019-04-26T19:18:55.457Z,10.02
2019-04-26T19:21:41.073Z,10.00
2019-04-26T19:24:17.260Z,10.03
2019-04-26T19:26:36.787Z,10.05
2019-04-26T19:29:15.495Z,10.03
2019-04-26T19:31:32.612Z,10.03
2019-04-26T19:34:01.731Z,10.03
2019-04-26T19:36:29.334Z,10.03
2019-04-26T19:38:56.613Z,10.02
2019-04-26T19:41:25.211Z,10.04
2019-04-26T19:43:52.431Z,8.50
2019-04-26T19:46:24.989Z,10.06
2019-04-26T19:49:07.843Z,10.08
2019-04-26T19:51:43.643Z,10.10
2019-04-26T19:54:15.614Z,10.10
2019-04-26T19:56:44.335Z,10.11
2019-04-26T19:59:12.047Z,10.16
2019-04-26T20:01:39.245Z,10.17
2019-04-26T20:04:06.013Z,10.16
2019-04-26T20:06:34.047Z,10.20
2019-04-26T20:09:01.964Z,10.22
2019-04-26T20:11:28.929Z,10.25
2019-04-26T20:13:56.585Z,10.28
2019-04-26T20:16:25.998Z,10.27
2019-04-26T20:18:53.983Z,10.26
2019-04-26T20:21:21.799Z,10.25
2019-04-26T20:23:52.033Z,10.27
2019-04-26T20:26:17.770Z,10.29
2019-04-26T20:28:44.715Z,10.32
2019-04-26T20:31:19.383Z,10.35
2019-04-26T20:33:47.872Z,10.37
2019-04-26T20:36:14.724Z,10.40
2019-04-26T20:38:45.636Z,10.44
2019-04-26T20:41:13.257Z,10.47
2019-04-26T20:43:44.357Z,10.48
2019-04-26T20:46:14.479Z,10.49
2019-04-26T20:48:37.212Z,10.48
2019-04-26T20:51:06.630Z,10.47
2019-04-26T20:53:40.077Z,10.48
2019-04-26T20:56:03.772Z,10.49
2019-04-26T20:58:31.763Z,10.50
2019-04-26T21:00:58.653Z,10.49
2019-04-26T21:03:27.911Z,10.51
2019-04-26T21:05:59.259Z,10.50
2019-04-26T21:08:26.732Z,10.51
2019-04-26T21:10:56.125Z,10.51
2019-04-26T21:13:23.726Z,10.49
2019-04-26T21:15:57.934Z,10.49
2019-04-26T21:18:21.147Z,10.46
2019-04-26T21:20:48.945Z,10.43
2019-04-26T21:23:16.312Z,10.43
2019-04-26T21:25:48.549Z,10.43
2019-04-26T21:28:17.642Z,10.44
2019-04-26T21:31:03.379Z,10.43
2019-04-26T21:33:45.139Z,10.45
2019-04-26T21:36:34.755Z,10.43
2019-04-26T21:39:07.301Z,10.44
2019-04-26T21:41:40.398Z,10.46
2019-04-26T21:44:07.548Z,10.47
2019-04-26T21:46:35.348Z,10.48
2019-04-26T21:49:03.658Z,10.49
2019-04-26T21:51:30.588Z,10.52
2019-04-26T21:53:57.469Z,10.52
2019-04-26T21:56:25.283Z,10.52
2019-04-26T21:58:53.341Z,10.52
2019-04-26T22:01:23.458Z,10.50
2019-04-26T22:03:56.995Z,10.50
2019-04-26T22:06:24.004Z,10.50
2019-04-26T22:08:58.975Z,10.47
2019-04-26T22:11:25.224Z,10.45
2019-04-26T22:13:59.547Z,10.43
2019-04-26T22:16:35.971Z,10.42
2019-04-26T22:19:21.461Z,10.42
2019-04-26T22:22:07.723Z,10.41
2019-04-26T22:24:36.337Z,10.37
2019-04-26T22:27:03.989Z,10.35
2019-04-26T22:29:31.272Z,10.34
2019-04-26T22:31:58.211Z,10.35
2019-04-26T22:34:25.108Z,10.38
2019-04-26T22:36:53.537Z,10.39
2019-04-26T22:39:22.786Z,10.39
2019-04-26T22:41:50.464Z,10.38
2019-04-26T22:44:35.822Z,10.36
2019-04-26T22:47:08.171Z,10.35
2019-04-26T22:49:41.730Z,10.36
2019-04-26T22:52:06.478Z,10.36
2019-04-26T22:54:37.798Z,10.36
2019-04-26T22:57:03.907Z,10.36
2019-04-26T22:59:31.507Z,10.37
2019-04-26T23:01:58.375Z,10.39
2019-04-26T23:04:26.589Z,10.39
2019-04-26T23:06:54.257Z,10.39
2019-04-26T23:09:23.422Z,10.40
2019-04-26T23:11:53.830Z,10.41
2019-04-26T23:14:25.946Z,10.41
2019-04-26T23:17:04.061Z,10.43
2019-04-26T23:19:25.845Z,10.44
2019-04-26T23:21:56.133Z,10.46
2019-04-26T23:24:23.821Z,10.45
2019-04-26T23:26:51.778Z,10.43
2019-04-26T23:29:19.236Z,10.42
2019-04-26T23:31:47.323Z,10.43
2019-04-26T23:34:14.985Z,10.42
2019-04-26T23:36:43.680Z,10.43
2019-04-26T23:39:12.189Z,10.44
2019-04-26T23:41:41.650Z,10.43
2019-04-26T23:44:09.503Z,10.45
2019-04-26T23:46:37.603Z,10.45
2019-04-26T23:49:05.233Z,10.46
2019-04-26T23:51:33.871Z,10.46
2019-04-26T23:54:03.318Z,10.46
2019-04-26T23:56:31.189Z,10.47
2019-04-26T23:58:58.787Z,10.46
